Portada
METAR-TAF:

METAR-TAF

Aeroports :

Shenzhen, Xina

latitud: 22-33N, longitud: 114-06E, altitud: 18 m

Observació

L'informe es va fer fa 1 hora i 1 minuts, a les 12:00 UTC
Vent 8 kt del Est
Temperatura 24°C
Humitat 78%
Pressió 1015 hPa
Visibilitat 10 km o més
Cel ennuvolat a una alçada de 2600 ft
Cel ennuvolat a una alçada de 3300 ft

METAR: ZGSZ 151200Z 10004MPS 9999 BKN026 BKN033 24/20 Q1015 NOSIG

Hora: 21:01 (13:01 UTC)

Pronòstic

L'informe es va fer fa 3 hores i 56 minuts, a les 09:05 UTC
Pronòstic vàlid del 15 a les 12 UTC al 16 a les 12 UTC
Vent 8 kt del Est
Visibilitat: 6000 m
Núvols disperses a una alçada de 3000 ft

TAF: ZGSZ 150905Z 1512/1612 10004MPS 6000 SCT030 TX27/1606Z TN22/1522Z

Observacions i pronòstics meteorològics de més de 4000 aeroports (METAR i TAF).

Les estacions disponibles són els punts grocs i vermells al mapa.

Posi el ratolí al punt desitjat per veure el nom de l'estació.

Feu clic per veure les observacions i els pronòstics meteorològics.

Per canviar el mapa: feu clic els botons verds amb una creu de color negre per apropar; al botó verd amb un guió per allunyar la imatge; o en les fletxes verdes per a mapes adjacents.


METAR-TAF: